Airfield :
LOGIN :

Register | Disclaimer

   EN    FR    IT 

 










Legend :    VFR   Marginal VFR   IFR   Intensive IFR   Very Intensive IFR
Visi :
Ceiling :
>= 8 km
>= 3000ft
5 to 8 km
1000 to 3000 ft
1500m to 5 km
500 to 1000 ft
800 to 1500m
200 to 500 ft
< 800m
< 200 ft
Symbols :   Thunderstorms  Fog  Heavy snow  Heavy precipitations  Wind > 20 kt
SIGMETs :     Misc.  Thunderstorms  Icing  Turbulence  Mountain Waves  Volcanic Ashes






- Airport Elevation : 459 ft
- IATA code : CER


LFRC - Cherbourg / Maupertus

CURRENT METAR :
  • 201400Z AUTO 19013KT 9999 BKN024 18/14 Q1002 BECMG 19015G25KT

EXPIRED METARs :
  • 201330Z AUTO 18015KT CAVOK 17/13 Q1002 BECMG 19015G25KT
  • 201300Z AUTO 19016KT 160V220 9999 FEW025 BKN070 18/13 Q1002 BECMG 19015G25KT
  • 201230Z AUTO 19016G27KT 9999 FEW026 BKN180 18/12 Q1002 NOSIG
  • 201200Z AUTO 19017KT 9999 FEW024 18/13 Q1002 BECMG 19015G25KT
  • 201130Z AUTO 19016KT 9999 FEW022 18/13 Q1003 BECMG 19015G25KT

TAF TAF LFRC
Valid from the 20 at 12:00 until the 20 at 21:00 UTC


201100Z 2012/2021 19015G25KT 9999 BKN030



MET'MAP, your aeronautical weather chart ! - Copyright ORBIFLY December 2007 - Disclaimer

ORBIFLY MET'MAP TEAM :

Programming & Development : Alexandra Zaïnal
Concept & original design : Baudouin d'Aumeries
Assistance for programming : Marc-Olivier Méhu
Technical & hardware support : Manuel Goepfert

Contact : metmap@orbifly.com




SOURCES & CREDITS :

   NOAA